createdAt,value
2023-02-27T00:01:54.681Z,3.42
2023-02-27T00:04:21.164Z,4.00
2023-02-27T00:06:47.588Z,5.55
2023-02-27T00:09:14.017Z,3.90
2023-02-27T00:11:40.543Z,4.50
2023-02-27T00:14:06.981Z,3.03
2023-02-27T00:16:34.299Z,4.75
2023-02-27T00:19:02.366Z,8.60
2023-02-27T00:21:28.983Z,7.28
2023-02-27T00:23:55.565Z,6.78
2023-02-27T00:26:22.255Z,7.93
2023-02-27T00:28:48.750Z,3.88
2023-02-27T00:31:15.384Z,4.72
2023-02-27T00:33:41.877Z,4.05
2023-02-27T00:36:08.394Z,5.90
2023-02-27T00:38:35.546Z,3.20
2023-02-27T00:41:02.804Z,4.57
2023-02-27T00:43:29.467Z,2.85
2023-02-27T00:45:55.914Z,3.67
2023-02-27T00:48:22.435Z,4.93
2023-02-27T00:50:50.676Z,4.03
2023-02-27T00:53:17.167Z,5.55
2023-02-27T00:55:43.662Z,2.67
2023-02-27T00:58:10.087Z,3.83
2023-02-27T01:00:36.593Z,4.55
2023-02-27T01:03:03.822Z,4.05
2023-02-27T01:05:30.377Z,6.15
2023-02-27T01:07:56.835Z,4.88
2023-02-27T01:10:23.444Z,6.15
2023-02-27T01:12:49.830Z,4.78
2023-02-27T01:15:16.566Z,5.68
2023-02-27T01:17:43.180Z,5.13
2023-02-27T01:20:12.259Z,4.13
2023-02-27T01:22:38.731Z,5.07
2023-02-27T01:25:05.681Z,4.90
2023-02-27T01:27:32.232Z,4.57
2023-02-27T01:29:58.781Z,3.55
2023-02-27T01:32:25.339Z,4.00
2023-02-27T01:34:51.794Z,3.35
2023-02-27T01:37:18.870Z,7.15
2023-02-27T01:39:45.263Z,4.57
2023-02-27T01:42:24.374Z,6.10
2023-02-27T01:45:09.557Z,6.05
2023-02-27T01:47:37.774Z,3.97
2023-02-27T01:50:04.527Z,4.63
2023-02-27T01:52:31.784Z,3.13
2023-02-27T01:54:58.793Z,4.75
2023-02-27T01:57:26.665Z,5.50
2023-02-27T01:59:53.804Z,2.88
2023-02-27T02:02:25.438Z,4.70
2023-02-27T02:04:54.185Z,4.65
2023-02-27T02:07:21.343Z,6.53
2023-02-27T02:09:54.673Z,4.00
2023-02-27T02:12:27.751Z,6.03
2023-02-27T02:14:54.401Z,4.13
2023-02-27T02:17:40.324Z,6.63
2023-02-27T02:20:27.357Z,4.35
2023-02-27T02:23:18.756Z,5.43
2023-02-27T02:26:33.200Z,5.03
2023-02-27T02:29:30.763Z,4.80
2023-02-27T02:32:07.681Z,3.20
2023-02-27T02:34:46.769Z,3.10
2023-02-27T02:37:34.275Z,5.60
2023-02-27T02:40:24.547Z,3.72
2023-02-27T02:43:13.743Z,3.40
2023-02-27T02:46:08.206Z,5.85
2023-02-27T02:49:03.142Z,5.30
2023-02-27T02:51:39.324Z,3.75
2023-02-27T02:54:17.128Z,4.13
2023-02-27T02:56:50.442Z,3.65
2023-02-27T02:59:35.564Z,4.30
2023-02-27T03:02:10.704Z,3.63
2023-02-27T03:04:50.464Z,3.97
2023-02-27T03:07:30.289Z,3.00
2023-02-27T03:10:17.866Z,5.53
2023-02-27T03:12:51.615Z,5.32
2023-02-27T03:15:27.134Z,6.53
2023-02-27T03:18:01.310Z,3.72
2023-02-27T03:20:41.475Z,3.28
2023-02-27T03:23:29.726Z,5.13
2023-02-27T03:25:58.282Z,4.63
2023-02-27T03:28:29.085Z,5.50
2023-02-27T03:31:13.634Z,4.88
2023-02-27T03:33:53.675Z,5.35
2023-02-27T03:36:26.370Z,4.40
2023-02-27T03:39:05.599Z,7.65
2023-02-27T03:41:44.890Z,5.00
2023-02-27T03:44:22.294Z,4.57
2023-02-27T03:46:48.830Z,5.25
2023-02-27T03:49:15.404Z,4.13
2023-02-27T03:51:41.897Z,4.28
2023-02-27T03:54:14.758Z,5.72
2023-02-27T03:56:56.271Z,6.25
2023-02-27T03:59:24.435Z,5.80
2023-02-27T04:01:51.973Z,6.13
2023-02-27T04:04:18.748Z,5.43
2023-02-27T04:07:09.369Z,5.07
2023-02-27T04:10:00.726Z,3.60
2023-02-27T04:12:55.170Z,3.78
2023-02-27T04:15:40.323Z,3.63
2023-02-27T04:18:29.590Z,3.10
2023-02-27T04:21:09.338Z,4.00
2023-02-27T04:23:57.892Z,3.80
2023-02-27T04:26:39.939Z,5.40
2023-02-27T04:29:11.195Z,5.70
2023-02-27T04:31:53.300Z,4.75
2023-02-27T04:34:31.915Z,3.22
2023-02-27T04:37:06.556Z,4.97
2023-02-27T04:39:56.414Z,4.32
2023-02-27T04:42:31.127Z,4.22
2023-02-27T04:45:00.985Z,7.32
2023-02-27T04:47:31.770Z,2.97
2023-02-27T04:50:27.398Z,6.47
2023-02-27T04:53:01.955Z,6.15
2023-02-27T04:55:32.459Z,7.70
2023-02-27T04:58:12.743Z,8.15
2023-02-27T05:00:42.899Z,5.80
2023-02-27T05:03:18.335Z,8.10
2023-02-27T05:05:47.240Z,5.15
2023-02-27T05:08:42.065Z,4.10
2023-02-27T05:11:38.347Z,4.85
2023-02-27T05:14:18.280Z,5.07
2023-02-27T05:16:56.738Z,7.47
2023-02-27T05:19:23.615Z,8.32
2023-02-27T05:22:05.266Z,4.68
2023-02-27T05:25:12.279Z,4.82
2023-02-27T05:27:56.083Z,3.45
2023-02-27T05:30:36.082Z,3.88
2023-02-27T05:33:07.337Z,7.32
2023-02-27T05:35:55.000Z,16.75
2023-02-27T05:38:27.939Z,4.78
2023-02-27T05:41:01.211Z,5.55
2023-02-27T05:43:51.532Z,6.13
2023-02-27T05:46:26.485Z,5.78
2023-02-27T05:48:57.946Z,5.88
2023-02-27T05:51:29.929Z,8.30
2023-02-27T05:54:13.731Z,5.95
2023-02-27T05:56:43.479Z,5.28
2023-02-27T05:59:22.402Z,7.95
2023-02-27T06:01:48.866Z,8.63
2023-02-27T06:04:15.375Z,11.45
2023-02-27T06:06:42.101Z,10.85
2023-02-27T06:09:09.526Z,11.73
2023-02-27T06:11:35.992Z,11.50
2023-02-27T06:14:03.342Z,10.95
2023-02-27T06:16:30.303Z,9.00
2023-02-27T06:18:57.057Z,26.38
2023-02-27T06:21:23.608Z,19.70
2023-02-27T06:23:50.060Z,16.20
2023-02-27T06:26:16.544Z,15.80
2023-02-27T06:28:43.150Z,17.05
2023-02-27T06:31:09.631Z,35.33
2023-02-27T06:33:36.108Z,17.17
2023-02-27T06:36:02.714Z,31.95
2023-02-27T06:38:29.235Z,26.38
2023-02-27T06:40:55.659Z,16.38
2023-02-27T06:43:24.740Z,20.45
2023-02-27T06:45:54.690Z,9.30
2023-02-27T06:48:21.347Z,12.70
2023-02-27T06:50:56.227Z,12.32
2023-02-27T06:53:24.318Z,15.73
2023-02-27T06:55:50.942Z,17.90
2023-02-27T06:58:17.983Z,20.42
2023-02-27T07:00:44.594Z,12.85
2023-02-27T07:03:12.523Z,21.92
2023-02-27T07:05:40.143Z,17.33
2023-02-27T07:08:06.588Z,22.35
2023-02-27T07:10:34.076Z,10.65
2023-02-27T07:13:00.459Z,9.63
2023-02-27T07:15:27.085Z,5.53
2023-02-27T07:17:54.459Z,9.13
2023-02-27T07:20:20.888Z,6.13
2023-02-27T07:22:47.379Z,6.78
2023-02-27T07:25:13.836Z,5.95
2023-02-27T07:27:40.248Z,6.70
2023-02-27T07:30:07.466Z,5.30
2023-02-27T07:32:33.865Z,5.88
2023-02-27T07:35:00.339Z,8.05
2023-02-27T07:37:28.232Z,4.30
2023-02-27T07:39:54.725Z,11.10
2023-02-27T07:42:21.190Z,5.95
2023-02-27T07:44:47.668Z,6.70
2023-02-27T07:47:14.121Z,7.88
2023-02-27T07:49:40.563Z,6.00
2023-02-27T07:52:08.293Z,10.60
2023-02-27T07:54:37.494Z,7.07
2023-02-27T07:57:05.025Z,10.27
2023-02-27T07:59:31.531Z,4.38
2023-02-27T08:01:58.271Z,6.97
2023-02-27T08:04:24.863Z,5.95
2023-02-27T08:06:51.300Z,4.25
2023-02-27T08:09:17.848Z,6.20
2023-02-27T08:11:44.279Z,10.07
2023-02-27T08:14:10.817Z,4.82
2023-02-27T08:16:37.554Z,3.10
2023-02-27T08:19:04.101Z,3.28
2023-02-27T08:21:30.719Z,5.10
2023-02-27T08:23:57.438Z,4.15
2023-02-27T08:26:23.911Z,8.00
2023-02-27T08:28:50.725Z,5.20
2023-02-27T08:31:17.187Z,4.95
2023-02-27T08:33:43.948Z,7.63
2023-02-27T08:36:10.523Z,6.55
2023-02-27T08:38:36.979Z,4.85
2023-02-27T08:41:03.638Z,10.38
2023-02-27T08:43:30.049Z,6.00
2023-02-27T08:45:56.535Z,7.50
2023-02-27T08:48:24.831Z,6.13
2023-02-27T08:50:52.197Z,4.45
2023-02-27T08:53:18.729Z,6.47
2023-02-27T08:55:49.878Z,9.90
2023-02-27T08:58:17.200Z,5.85
2023-02-27T09:00:44.731Z,8.23
2023-02-27T09:03:11.377Z,4.13
2023-02-27T09:05:38.547Z,9.25
2023-02-27T09:08:05.533Z,13.90
2023-02-27T09:10:33.041Z,5.25
2023-02-27T09:12:59.754Z,8.98
2023-02-27T09:15:26.421Z,5.30
2023-02-27T09:17:56.352Z,4.10
2023-02-27T09:20:23.012Z,4.85
2023-02-27T09:22:49.550Z,7.70
2023-02-27T09:25:15.995Z,5.18
2023-02-27T09:27:42.434Z,7.50
2023-02-27T09:30:09.655Z,9.48
2023-02-27T09:32:36.121Z,4.65
2023-02-27T09:35:02.579Z,4.63
2023-02-27T09:37:29.086Z,4.00
2023-02-27T09:39:55.480Z,7.18
2023-02-27T09:42:29.387Z,13.77
2023-02-27T09:45:01.939Z,3.25
2023-02-27T09:47:39.643Z,7.82
2023-02-27T09:50:20.036Z,4.50
2023-02-27T09:52:46.460Z,7.32
2023-02-27T09:55:19.030Z,3.75
2023-02-27T09:58:07.862Z,4.90
2023-02-27T10:00:53.394Z,6.57
2023-02-27T10:04:00.405Z,6.32
2023-02-27T10:06:38.851Z,1.92
2023-02-27T10:09:33.679Z,3.92
2023-02-27T10:12:12.951Z,2.67
2023-02-27T10:14:47.717Z,2.78
2023-02-27T10:17:22.298Z,3.80
2023-02-27T10:19:52.064Z,4.18
2023-02-27T10:22:28.843Z,3.47
2023-02-27T10:25:28.727Z,3.58
2023-02-27T10:28:09.019Z,3.45
2023-02-27T10:30:35.743Z,5.90
2023-02-27T10:33:09.959Z,3.40
2023-02-27T10:35:39.884Z,2.80
2023-02-27T10:38:12.879Z,5.53
2023-02-27T10:40:41.725Z,1.60
2023-02-27T10:43:08.420Z,2.95
2023-02-27T10:45:35.945Z,2.92
2023-02-27T10:48:05.360Z,2.13
2023-02-27T10:50:38.167Z,2.55
2023-02-27T10:53:16.970Z,4.05
2023-02-27T10:55:47.834Z,7.03
2023-02-27T10:58:20.690Z,5.30
2023-02-27T11:00:55.995Z,5.82
2023-02-27T11:03:34.116Z,2.80
2023-02-27T11:06:20.544Z,11.55
2023-02-27T11:09:18.657Z,5.40
2023-02-27T11:11:45.081Z,2.10
2023-02-27T11:14:25.089Z,5.82
2023-02-27T11:16:53.767Z,3.85
2023-02-27T11:19:36.681Z,3.90
2023-02-27T11:22:14.121Z,2.92
2023-02-27T11:24:41.348Z,4.00
2023-02-27T11:27:21.984Z,1.98
2023-02-27T11:30:04.082Z,2.88
2023-02-27T11:32:41.150Z,8.27
2023-02-27T11:35:23.113Z,3.58
2023-02-27T11:37:55.230Z,2.60
2023-02-27T11:40:26.561Z,8.75
2023-02-27T11:42:56.812Z,2.15
2023-02-27T11:46:13.569Z,2.67
2023-02-27T11:48:29.349Z,3.90
2023-02-27T11:51:11.037Z,3.80
2023-02-27T11:53:48.170Z,4.40
2023-02-27T11:56:22.227Z,3.20
2023-02-27T11:59:01.498Z,5.05
2023-02-27T12:01:38.843Z,5.75
2023-02-27T12:04:16.614Z,5.15
2023-02-27T12:06:56.262Z,4.43
2023-02-27T12:09:38.955Z,3.28
2023-02-27T12:12:22.223Z,5.60
2023-02-27T12:15:02.561Z,3.03
2023-02-27T12:17:43.545Z,4.90
2023-02-27T12:20:25.092Z,5.10
2023-02-27T12:22:54.144Z,5.10
2023-02-27T12:28:00.116Z,9.20
2023-02-27T12:30:30.439Z,10.10
2023-02-27T12:33:45.302Z,4.00
2023-02-27T12:36:14.067Z,6.95
2023-02-27T12:38:41.235Z,2.45
2023-02-27T12:41:36.603Z,4.10
2023-02-27T12:44:41.920Z,11.20
2023-02-27T12:47:22.583Z,2.75
2023-02-27T12:49:58.916Z,2.40
2023-02-27T12:52:39.300Z,2.13
2023-02-27T12:55:13.300Z,7.82
2023-02-27T12:58:04.636Z,3.03
2023-02-27T13:00:46.321Z,9.90
2023-02-27T13:03:22.079Z,8.75
2023-02-27T13:06:25.297Z,2.65
2023-02-27T13:09:01.097Z,2.00
2023-02-27T13:11:43.702Z,4.75
2023-02-27T13:14:33.904Z,3.72
2023-02-27T13:17:05.158Z,4.05
2023-02-27T13:19:58.184Z,3.63
2023-02-27T13:22:45.908Z,1.58
2023-02-27T13:25:17.631Z,2.17
2023-02-27T13:27:52.002Z,1.55
2023-02-27T13:30:26.856Z,2.35
2023-02-27T13:33:05.975Z,3.55
2023-02-27T13:35:51.206Z,6.70
2023-02-27T13:38:41.791Z,3.33
2023-02-27T13:41:20.418Z,7.82
2023-02-27T13:43:52.411Z,4.90
2023-02-27T13:46:34.702Z,9.70
2023-02-27T13:49:04.175Z,5.53
2023-02-27T13:51:39.945Z,4.60
2023-02-27T13:54:15.968Z,10.00
2023-02-27T13:56:46.449Z,7.15
2023-02-27T13:59:29.047Z,8.25
2023-02-27T14:02:06.970Z,7.10
2023-02-27T14:04:37.021Z,5.55
2023-02-27T14:07:10.768Z,5.43
2023-02-27T14:09:41.056Z,3.00
2023-02-27T14:12:46.887Z,3.35
2023-02-27T14:15:22.556Z,10.05
2023-02-27T14:18:11.476Z,7.80
2023-02-27T14:20:40.457Z,6.97
2023-02-27T14:23:15.861Z,4.97
2023-02-27T14:28:35.950Z,4.57
2023-02-27T14:31:05.717Z,5.65
2023-02-27T14:33:53.991Z,6.68
2023-02-27T14:36:28.183Z,12.25
2023-02-27T14:38:57.517Z,2.15
2023-02-27T14:41:58.650Z,11.65
2023-02-27T14:44:27.941Z,7.75
2023-02-27T14:47:01.704Z,16.33
2023-02-27T14:49:30.719Z,8.77
2023-02-27T14:54:26.258Z,3.60
2023-02-27T14:57:05.202Z,11.85
2023-02-27T14:59:33.288Z,7.45
2023-02-27T15:02:04.500Z,4.05
2023-02-27T15:04:33.034Z,3.85
2023-02-27T15:07:00.532Z,12.40
2023-02-27T15:09:38.364Z,8.45
2023-02-27T15:12:05.149Z,7.70
2023-02-27T15:14:40.057Z,11.30
2023-02-27T15:17:18.103Z,8.80
2023-02-27T15:19:50.488Z,10.23
2023-02-27T15:22:36.178Z,12.13
2023-02-27T15:25:07.581Z,15.20
2023-02-27T15:27:37.088Z,13.30
2023-02-27T15:30:04.714Z,11.70
2023-02-27T15:32:34.339Z,10.23
2023-02-27T15:35:04.812Z,7.82
2023-02-27T15:37:33.940Z,7.35
2023-02-27T15:40:01.401Z,10.60
2023-02-27T15:42:31.202Z,4.65
2023-02-27T15:44:58.500Z,4.93
2023-02-27T15:47:28.362Z,7.80
2023-02-27T15:50:00.182Z,5.50
2023-02-27T15:52:31.630Z,7.97
2023-02-27T15:55:04.219Z,8.55
2023-02-27T15:57:32.494Z,8.82
2023-02-27T16:00:00.757Z,4.28
2023-02-27T16:02:39.911Z,11.10
2023-02-27T16:05:14.324Z,7.90
2023-02-27T16:07:42.857Z,6.90
2023-02-27T16:10:20.220Z,6.90
2023-02-27T16:12:46.639Z,4.60
2023-02-27T16:15:33.007Z,11.55
2023-02-27T16:18:06.700Z,16.90
2023-02-27T16:20:54.759Z,17.50
2023-02-27T16:23:31.999Z,19.30
2023-02-27T16:26:04.529Z,20.67
2023-02-27T16:28:52.611Z,14.52
2023-02-27T16:31:25.754Z,11.40
2023-02-27T16:33:53.849Z,7.95
2023-02-27T16:36:23.376Z,7.13
2023-02-27T16:38:49.869Z,6.88
2023-02-27T16:41:19.200Z,6.43
2023-02-27T16:43:47.054Z,6.05
2023-02-27T16:46:19.939Z,11.23
2023-02-27T16:48:55.085Z,9.38
2023-02-27T16:51:24.935Z,8.48
2023-02-27T16:53:52.822Z,4.25
2023-02-27T16:56:26.192Z,7.60
2023-02-27T16:58:58.919Z,9.90
2023-02-27T17:01:25.355Z,3.83
2023-02-27T17:03:53.093Z,7.28
2023-02-27T17:06:19.559Z,6.22
2023-02-27T17:08:46.058Z,5.28
2023-02-27T17:11:12.508Z,14.90
2023-02-27T17:13:39.446Z,8.40
2023-02-27T17:16:06.529Z,7.35
2023-02-27T17:18:33.221Z,10.60
2023-02-27T17:21:01.472Z,5.47
2023-02-27T17:23:27.859Z,8.77
2023-02-27T17:25:54.764Z,7.78
2023-02-27T17:28:22.554Z,7.47
2023-02-27T17:30:50.317Z,7.50
2023-02-27T17:33:17.117Z,6.00
2023-02-27T17:35:43.575Z,8.25
2023-02-27T17:38:10.006Z,7.57
2023-02-27T17:40:37.713Z,5.65
2023-02-27T17:43:04.231Z,8.25
2023-02-27T17:45:30.713Z,8.75
2023-02-27T17:47:57.355Z,17.98
2023-02-27T17:50:23.788Z,13.05
2023-02-27T17:52:50.317Z,7.68
2023-02-27T17:55:16.915Z,12.32
2023-02-27T17:57:43.496Z,8.52
2023-02-27T18:00:15.780Z,6.53
2023-02-27T18:02:45.069Z,6.63
2023-02-27T18:05:12.667Z,9.43
2023-02-27T18:07:39.683Z,7.97
2023-02-27T18:10:08.967Z,9.82
2023-02-27T18:12:36.629Z,12.15
2023-02-27T18:15:04.190Z,12.70
2023-02-27T18:17:30.754Z,13.10
2023-02-27T18:19:58.030Z,19.40
2023-02-27T18:22:25.773Z,21.83
2023-02-27T18:24:53.951Z,14.45
2023-02-27T18:27:22.184Z,14.80
2023-02-27T18:29:49.460Z,12.80
2023-02-27T18:32:16.277Z,9.95
2023-02-27T18:34:43.452Z,9.07
2023-02-27T18:37:10.851Z,8.00
2023-02-27T18:39:37.512Z,8.93
2023-02-27T18:42:06.452Z,9.50
2023-02-27T18:44:33.160Z,14.90
2023-02-27T18:46:59.649Z,11.25
2023-02-27T18:49:26.107Z,18.15
2023-02-27T18:51:52.563Z,17.58
2023-02-27T18:54:19.032Z,12.57
2023-02-27T18:56:45.541Z,18.92
2023-02-27T18:59:12.080Z,23.75
2023-02-27T19:01:38.940Z,11.32
2023-02-27T19:04:07.766Z,11.98
2023-02-27T19:06:40.428Z,12.02
2023-02-27T19:09:08.723Z,8.68
2023-02-27T19:11:35.728Z,8.57
2023-02-27T19:14:04.151Z,9.57
2023-02-27T19:16:31.458Z,11.30
2023-02-27T19:18:59.424Z,8.57
2023-02-27T19:21:26.868Z,9.35
2023-02-27T19:23:53.352Z,14.18
2023-02-27T19:26:20.615Z,11.40
2023-02-27T19:28:50.815Z,8.70
2023-02-27T19:31:17.549Z,9.10
2023-02-27T19:33:44.053Z,13.02
2023-02-27T19:36:13.621Z,15.18
2023-02-27T19:38:40.753Z,11.73
2023-02-27T19:41:10.847Z,9.77
2023-02-27T19:43:39.129Z,9.43
2023-02-27T19:46:07.092Z,9.57
2023-02-27T19:48:33.808Z,9.00
2023-02-27T19:51:08.176Z,26.15
2023-02-27T19:53:37.302Z,10.32
2023-02-27T19:56:06.399Z,9.60
2023-02-27T19:58:34.086Z,14.73
2023-02-27T20:01:00.844Z,10.77
2023-02-27T20:03:27.408Z,10.02
2023-02-27T20:05:53.859Z,11.15
2023-02-27T20:08:20.973Z,19.58
2023-02-27T20:11:01.720Z,10.75
2023-02-27T20:13:29.114Z,10.65
2023-02-27T20:16:04.493Z,10.55
2023-02-27T20:18:32.087Z,11.70
2023-02-27T20:21:13.637Z,12.10
2023-02-27T20:23:41.761Z,11.82
2023-02-27T20:26:20.435Z,10.88
2023-02-27T20:28:48.878Z,16.70
2023-02-27T20:31:18.881Z,12.50
2023-02-27T20:33:46.420Z,10.13
2023-02-27T20:36:13.984Z,16.02
2023-02-27T20:38:41.426Z,15.23
2023-02-27T20:41:10.547Z,14.50
2023-02-27T20:43:39.887Z,14.18
2023-02-27T20:46:09.139Z,12.48
2023-02-27T20:51:22.822Z,12.15
2023-02-27T20:53:52.726Z,14.10
2023-02-27T20:56:24.372Z,12.55
2023-02-27T20:58:50.951Z,10.80
2023-02-27T21:01:18.277Z,10.93
2023-02-27T21:03:46.840Z,8.23
2023-02-27T21:06:15.225Z,7.40
2023-02-27T21:08:44.894Z,6.00
2023-02-27T21:13:46.823Z,7.82
2023-02-27T21:16:15.202Z,6.28
2023-02-27T21:18:42.526Z,5.20
2023-02-27T21:21:11.819Z,6.68
2023-02-27T21:23:41.229Z,6.00
2023-02-27T21:26:09.529Z,7.60
2023-02-27T21:28:46.695Z,5.25
2023-02-27T21:31:17.992Z,7.35
2023-02-27T21:33:44.515Z,9.13
2023-02-27T21:36:11.563Z,8.27
2023-02-27T21:38:39.093Z,9.80
2023-02-27T21:41:11.807Z,12.38
2023-02-27T21:43:40.430Z,8.45
2023-02-27T21:46:11.820Z,10.35
2023-02-27T21:48:39.556Z,7.40
2023-02-27T21:51:06.582Z,6.43
2023-02-27T21:53:33.900Z,6.72
2023-02-27T21:56:06.514Z,4.28
2023-02-27T21:58:33.539Z,5.75
2023-02-27T22:01:00.469Z,15.95
2023-02-27T22:03:34.299Z,9.88
2023-02-27T22:06:01.807Z,9.45
2023-02-27T22:08:28.635Z,9.30
2023-02-27T22:10:59.329Z,7.25
2023-02-27T22:13:26.518Z,7.78
2023-02-27T22:15:53.850Z,7.07
2023-02-27T22:18:20.628Z,16.00
2023-02-27T22:20:47.049Z,6.72
2023-02-27T22:23:13.535Z,5.57
2023-02-27T22:25:41.000Z,11.20
2023-02-27T22:28:07.425Z,6.93
2023-02-27T22:30:34.316Z,6.15
2023-02-27T22:33:00.728Z,6.93
2023-02-27T22:35:27.148Z,7.40
2023-02-27T22:37:53.639Z,6.03
2023-02-27T22:40:20.459Z,10.25
2023-02-27T22:42:48.025Z,6.25
2023-02-27T22:45:15.228Z,6.65
2023-02-27T22:47:41.680Z,5.50
2023-02-27T22:50:08.872Z,5.60
2023-02-27T22:52:38.396Z,7.43
2023-02-27T22:55:05.283Z,5.53
2023-02-27T22:57:31.721Z,7.13
2023-02-27T22:59:58.131Z,5.93
2023-02-27T23:02:24.583Z,7.15
2023-02-27T23:04:50.980Z,6.75
2023-02-27T23:07:17.624Z,5.57
2023-02-27T23:09:44.154Z,5.88
2023-02-27T23:12:10.598Z,6.35
2023-02-27T23:14:37.007Z,6.00
2023-02-27T23:17:03.395Z,7.63
2023-02-27T23:19:29.877Z,7.22
2023-02-27T23:21:56.350Z,5.68
2023-02-27T23:24:22.753Z,4.90
2023-02-27T23:26:51.548Z,4.45
2023-02-27T23:29:18.578Z,5.28
2023-02-27T23:31:45.202Z,5.25
2023-02-27T23:34:11.709Z,5.28
2023-02-27T23:36:38.609Z,8.48
2023-02-27T23:39:06.486Z,5.70
2023-02-27T23:41:33.386Z,6.22
2023-02-27T23:44:01.440Z,7.07
2023-02-27T23:46:30.376Z,6.25
2023-02-27T23:48:58.804Z,7.35
2023-02-27T23:51:25.426Z,7.75
2023-02-27T23:53:52.564Z,5.13
2023-02-27T23:56:25.141Z,6.50
2023-02-27T23:58:56.550Z,6.57
